sensor_id;sensor_type;location;lat;lon;timestamp;temperature;humidity
39103;DHT22;24847;48.218;16.414;2023-10-13T00:01:34;19.00;99.90
39103;DHT22;24847;48.218;16.414;2023-10-13T00:06:40;19.00;99.90
39103;DHT22;24847;48.218;16.414;2023-10-13T00:11:47;18.90;99.90
39103;DHT22;24847;48.218;16.414;2023-10-13T00:16:56;18.40;99.90
39103;DHT22;24847;48.218;16.414;2023-10-13T00:22:11;18.40;99.90
39103;DHT22;24847;48.218;16.414;2023-10-13T00:27:17;18.40;99.90
39103;DHT22;24847;48.218;16.414;2023-10-13T00:32:34;18.60;99.90
39103;DHT22;24847;48.218;16.414;2023-10-13T00:37:44;18.50;99.90
39103;DHT22;24847;48.218;16.414;2023-10-13T00:42:52;18.70;99.90
39103;DHT22;24847;48.218;16.414;2023-10-13T00:47:59;18.50;99.90
39103;DHT22;24847;48.218;16.414;2023-10-13T00:53:09;18.50;99.90
39103;DHT22;24847;48.218;16.414;2023-10-13T00:58:15;18.40;99.90
39103;DHT22;24847;48.218;16.414;2023-10-13T01:03:26;18.40;99.90
39103;DHT22;24847;48.218;16.414;2023-10-13T01:08:32;18.70;99.90
39103;DHT22;24847;48.218;16.414;2023-10-13T01:13:43;18.60;99.90
39103;DHT22;24847;48.218;16.414;2023-10-13T01:18:51;18.80;99.90
39103;DHT22;24847;48.218;16.414;2023-10-13T01:23:55;18.60;99.90
39103;DHT22;24847;48.218;16.414;2023-10-13T01:28:58;18.70;99.90
39103;DHT22;24847;48.218;16.414;2023-10-13T01:34:00;18.70;99.90
39103;DHT22;24847;48.218;16.414;2023-10-13T01:39:03;18.80;99.90
39103;DHT22;24847;48.218;16.414;2023-10-13T01:44:06;18.60;99.90
39103;DHT22;24847;48.218;16.414;2023-10-13T01:49:15;18.80;99.90
39103;DHT22;24847;48.218;16.414;2023-10-13T01:54:19;18.60;99.90
39103;DHT22;24847;48.218;16.414;2023-10-13T01:59:25;18.60;99.90
39103;DHT22;24847;48.218;16.414;2023-10-13T02:04:30;18.70;99.90
39103;DHT22;24847;48.218;16.414;2023-10-13T02:09:42;18.70;99.90
39103;DHT22;24847;48.218;16.414;2023-10-13T02:14:47;18.50;99.90
39103;DHT22;24847;48.218;16.414;2023-10-13T02:19:57;18.70;99.90
39103;DHT22;24847;48.218;16.414;2023-10-13T02:25:03;18.70;99.90
39103;DHT22;24847;48.218;16.414;2023-10-13T02:30:08;18.70;99.90
39103;DHT22;24847;48.218;16.414;2023-10-13T02:35:18;18.70;99.90
39103;DHT22;24847;48.218;16.414;2023-10-13T02:40:36;18.50;99.90
39103;DHT22;24847;48.218;16.414;2023-10-13T02:45:41;18.50;99.90
39103;DHT22;24847;48.218;16.414;2023-10-13T02:50:44;18.30;99.90
39103;DHT22;24847;48.218;16.414;2023-10-13T02:55:54;18.10;99.90
39103;DHT22;24847;48.218;16.414;2023-10-13T03:01:01;18.20;99.90
39103;DHT22;24847;48.218;16.414;2023-10-13T03:06:09;18.40;99.90
39103;DHT22;24847;48.218;16.414;2023-10-13T03:11:16;18.50;99.90
39103;DHT22;24847;48.218;16.414;2023-10-13T03:16:25;18.50;99.90
39103;DHT22;24847;48.218;16.414;2023-10-13T03:21:31;18.50;99.90
39103;DHT22;24847;48.218;16.414;2023-10-13T03:26:41;18.30;99.90
39103;DHT22;24847;48.218;16.414;2023-10-13T03:31:55;18.30;99.90
39103;DHT22;24847;48.218;16.414;2023-10-13T03:37:09;18.30;99.90
39103;DHT22;24847;48.218;16.414;2023-10-13T03:42:20;18.30;99.90
39103;DHT22;24847;48.218;16.414;2023-10-13T03:47:25;18.30;99.90
39103;DHT22;24847;48.218;16.414;2023-10-13T03:52:28;17.90;99.90
39103;DHT22;24847;48.218;16.414;2023-10-13T03:57:38;18.00;99.90
39103;DHT22;24847;48.218;16.414;2023-10-13T04:02:40;18.00;99.90
39103;DHT22;24847;48.218;16.414;2023-10-13T04:07:48;17.70;99.90
39103;DHT22;24847;48.218;16.414;2023-10-13T04:13:10;17.60;99.90
39103;DHT22;24847;48.218;16.414;2023-10-13T04:18:26;17.30;99.90
39103;DHT22;24847;48.218;16.414;2023-10-13T04:23:37;17.70;99.90
39103;DHT22;24847;48.218;16.414;2023-10-13T04:28:54;18.10;99.90
39103;DHT22;24847;48.218;16.414;2023-10-13T04:33:57;18.20;99.90
39103;DHT22;24847;48.218;16.414;2023-10-13T04:39:08;18.20;99.90
39103;DHT22;24847;48.218;16.414;2023-10-13T04:44:22;18.20;99.90
39103;DHT22;24847;48.218;16.414;2023-10-13T04:49:45;18.20;99.90
39103;DHT22;24847;48.218;16.414;2023-10-13T04:54:57;18.10;99.90
39103;DHT22;24847;48.218;16.414;2023-10-13T05:00:14;18.20;99.90
39103;DHT22;24847;48.218;16.414;2023-10-13T05:05:37;18.10;99.90
39103;DHT22;24847;48.218;16.414;2023-10-13T05:10:57;17.90;99.90
39103;DHT22;24847;48.218;16.414;2023-10-13T05:16:20;18.00;99.90
39103;DHT22;24847;48.218;16.414;2023-10-13T05:21:42;18.10;99.90
39103;DHT22;24847;48.218;16.414;2023-10-13T05:27:17;17.90;99.90
39103;DHT22;24847;48.218;16.414;2023-10-13T05:32:39;18.00;99.90
39103;DHT22;24847;48.218;16.414;2023-10-13T05:38:02;18.00;99.90
39103;DHT22;24847;48.218;16.414;2023-10-13T05:43:25;18.00;99.90
39103;DHT22;24847;48.218;16.414;2023-10-13T05:48:48;17.80;99.90
39103;DHT22;24847;48.218;16.414;2023-10-13T05:54:24;18.10;99.90
39103;DHT22;24847;48.218;16.414;2023-10-13T05:59:48;17.80;99.90
39103;DHT22;24847;48.218;16.414;2023-10-13T06:05:08;18.10;99.90
39103;DHT22;24847;48.218;16.414;2023-10-13T06:10:32;18.30;99.90
39103;DHT22;24847;48.218;16.414;2023-10-13T06:15:54;18.30;99.90
39103;DHT22;24847;48.218;16.414;2023-10-13T06:21:16;18.40;99.90
39103;DHT22;24847;48.218;16.414;2023-10-13T06:26:41;18.50;99.90
39103;DHT22;24847;48.218;16.414;2023-10-13T06:32:01;18.60;99.90
39103;DHT22;24847;48.218;16.414;2023-10-13T06:37:21;18.60;99.90
39103;DHT22;24847;48.218;16.414;2023-10-13T06:42:29;18.70;99.90
39103;DHT22;24847;48.218;16.414;2023-10-13T06:47:38;18.60;99.90
39103;DHT22;24847;48.218;16.414;2023-10-13T06:52:48;18.70;99.90
39103;DHT22;24847;48.218;16.414;2023-10-13T06:57:55;18.90;99.90
39103;DHT22;24847;48.218;16.414;2023-10-13T07:03:04;19.10;99.90
39103;DHT22;24847;48.218;16.414;2023-10-13T07:08:14;19.20;99.90
39103;DHT22;24847;48.218;16.414;2023-10-13T07:13:27;19.10;99.90
39103;DHT22;24847;48.218;16.414;2023-10-13T07:18:32;18.60;99.90
39103;DHT22;24847;48.218;16.414;2023-10-13T07:23:40;18.90;99.90
39103;DHT22;24847;48.218;16.414;2023-10-13T07:28:51;19.10;99.90
39103;DHT22;24847;48.218;16.414;2023-10-13T07:33:59;19.20;99.90
39103;DHT22;24847;48.218;16.414;2023-10-13T07:39:12;19.30;99.90
39103;DHT22;24847;48.218;16.414;2023-10-13T07:44:23;19.40;99.90
39103;DHT22;24847;48.218;16.414;2023-10-13T07:49:36;19.50;99.90
39103;DHT22;24847;48.218;16.414;2023-10-13T07:54:42;19.60;99.90
39103;DHT22;24847;48.218;16.414;2023-10-13T07:59:50;19.70;99.90
39103;DHT22;24847;48.218;16.414;2023-10-13T08:04:53;19.80;99.90
39103;DHT22;24847;48.218;16.414;2023-10-13T08:09:57;19.80;99.90
39103;DHT22;24847;48.218;16.414;2023-10-13T08:15:08;19.80;99.90
39103;DHT22;24847;48.218;16.414;2023-10-13T08:20:30;20.00;99.90
39103;DHT22;24847;48.218;16.414;2023-10-13T08:25:39;20.00;99.90
39103;DHT22;24847;48.218;16.414;2023-10-13T08:31:02;20.00;99.90
39103;DHT22;24847;48.218;16.414;2023-10-13T08:36:27;20.20;99.90
39103;DHT22;24847;48.218;16.414;2023-10-13T08:41:32;20.30;99.90
39103;DHT22;24847;48.218;16.414;2023-10-13T08:47:00;20.50;99.90
39103;DHT22;24847;48.218;16.414;2023-10-13T08:52:10;20.70;99.90
39103;DHT22;24847;48.218;16.414;2023-10-13T08:57:33;21.30;99.90
39103;DHT22;24847;48.218;16.414;2023-10-13T09:02:37;22.90;99.90
39103;DHT22;24847;48.218;16.414;2023-10-13T09:07:55;23.80;99.90
39103;DHT22;24847;48.218;16.414;2023-10-13T09:13:10;24.40;99.90
39103;DHT22;24847;48.218;16.414;2023-10-13T09:18:26;25.10;99.90
39103;DHT22;24847;48.218;16.414;2023-10-13T09:23:46;24.90;99.90
39103;DHT22;24847;48.218;16.414;2023-10-13T09:28:52;24.90;99.90
39103;DHT22;24847;48.218;16.414;2023-10-13T09:33:57;25.10;99.90
39103;DHT22;24847;48.218;16.414;2023-10-13T09:39:06;25.20;99.90
39103;DHT22;24847;48.218;16.414;2023-10-13T09:44:33;24.70;99.90
39103;DHT22;24847;48.218;16.414;2023-10-13T09:49:43;24.80;99.90
39103;DHT22;24847;48.218;16.414;2023-10-13T09:55:16;25.10;99.90
39103;DHT22;24847;48.218;16.414;2023-10-13T10:00:27;25.60;99.90
39103;DHT22;24847;48.218;16.414;2023-10-13T10:05:58;25.40;99.90
39103;DHT22;24847;48.218;16.414;2023-10-13T10:11:52;25.30;99.90
39103;DHT22;24847;48.218;16.414;2023-10-13T10:17:07;26.00;99.90
39103;DHT22;24847;48.218;16.414;2023-10-13T10:22:27;25.80;99.90
39103;DHT22;24847;48.218;16.414;2023-10-13T10:27:35;25.90;99.90
39103;DHT22;24847;48.218;16.414;2023-10-13T10:32:38;25.90;99.90
39103;DHT22;24847;48.218;16.414;2023-10-13T10:37:45;26.10;99.90
39103;DHT22;24847;48.218;16.414;2023-10-13T10:42:56;25.90;99.90
39103;DHT22;24847;48.218;16.414;2023-10-13T10:48:05;26.00;99.90
39103;DHT22;24847;48.218;16.414;2023-10-13T10:53:20;26.10;99.90
39103;DHT22;24847;48.218;16.414;2023-10-13T10:58:34;26.10;99.90
39103;DHT22;24847;48.218;16.414;2023-10-13T11:03:55;26.30;99.90
39103;DHT22;24847;48.218;16.414;2023-10-13T11:09:04;26.30;99.90
39103;DHT22;24847;48.218;16.414;2023-10-13T11:14:21;26.30;99.90
39103;DHT22;24847;48.218;16.414;2023-10-13T11:19:33;26.50;99.90
39103;DHT22;24847;48.218;16.414;2023-10-13T11:24:43;26.40;99.90
39103;DHT22;24847;48.218;16.414;2023-10-13T11:29:48;26.40;99.90
39103;DHT22;24847;48.218;16.414;2023-10-13T11:34:53;26.40;99.90
39103;DHT22;24847;48.218;16.414;2023-10-13T11:39:58;26.40;99.90
39103;DHT22;24847;48.218;16.414;2023-10-13T11:45:07;26.30;99.90
39103;DHT22;24847;48.218;16.414;2023-10-13T11:50:30;26.40;99.90
39103;DHT22;24847;48.218;16.414;2023-10-13T11:55:41;26.40;99.90
39103;DHT22;24847;48.218;16.414;2023-10-13T12:00:47;26.40;99.90
39103;DHT22;24847;48.218;16.414;2023-10-13T12:05:54;26.40;99.90
39103;DHT22;24847;48.218;16.414;2023-10-13T12:11:19;26.40;99.90
39103;DHT22;24847;48.218;16.414;2023-10-13T12:16:41;26.40;99.90
39103;DHT22;24847;48.218;16.414;2023-10-13T12:21:47;26.30;99.90
39103;DHT22;24847;48.218;16.414;2023-10-13T12:26:51;26.30;99.90
39103;DHT22;24847;48.218;16.414;2023-10-13T12:31:56;26.30;99.90
39103;DHT22;24847;48.218;16.414;2023-10-13T12:37:09;26.30;99.90
39103;DHT22;24847;48.218;16.414;2023-10-13T12:42:35;26.10;99.90
39103;DHT22;24847;48.218;16.414;2023-10-13T12:47:58;26.00;99.90
39103;DHT22;24847;48.218;16.414;2023-10-13T12:53:20;26.10;99.90
39103;DHT22;24847;48.218;16.414;2023-10-13T12:58:23;25.90;99.90
39103;DHT22;24847;48.218;16.414;2023-10-13T13:03:30;25.80;99.90
39103;DHT22;24847;48.218;16.414;2023-10-13T13:08:39;25.60;99.90
39103;DHT22;24847;48.218;16.414;2023-10-13T13:13:52;25.30;99.90
39103;DHT22;24847;48.218;16.414;2023-10-13T13:18:54;25.30;99.90
39103;DHT22;24847;48.218;16.414;2023-10-13T13:24:00;25.30;99.90
39103;DHT22;24847;48.218;16.414;2023-10-13T13:29:06;25.20;99.90
39103;DHT22;24847;48.218;16.414;2023-10-13T13:34:11;25.20;99.90
39103;DHT22;24847;48.218;16.414;2023-10-13T13:39:20;25.20;99.90
39103;DHT22;24847;48.218;16.414;2023-10-13T13:44:33;25.10;99.90
39103;DHT22;24847;48.218;16.414;2023-10-13T13:49:38;25.10;99.90
39103;DHT22;24847;48.218;16.414;2023-10-13T13:54:43;25.10;99.90
39103;DHT22;24847;48.218;16.414;2023-10-13T13:59:52;25.00;99.90
39103;DHT22;24847;48.218;16.414;2023-10-13T14:05:00;24.90;99.90
39103;DHT22;24847;48.218;16.414;2023-10-13T14:10:08;24.80;99.90
39103;DHT22;24847;48.218;16.414;2023-10-13T14:15:22;24.80;99.90
39103;DHT22;24847;48.218;16.414;2023-10-13T14:20:30;24.60;99.90
39103;DHT22;24847;48.218;16.414;2023-10-13T14:25:39;24.60;99.90
39103;DHT22;24847;48.218;16.414;2023-10-13T14:30:46;24.50;99.90
39103;DHT22;24847;48.218;16.414;2023-10-13T14:35:51;24.50;99.90
39103;DHT22;24847;48.218;16.414;2023-10-13T14:40:59;24.50;99.90
39103;DHT22;24847;48.218;16.414;2023-10-13T14:46:08;24.60;99.90
39103;DHT22;24847;48.218;16.414;2023-10-13T14:51:10;24.60;99.90
39103;DHT22;24847;48.218;16.414;2023-10-13T14:56:17;24.40;99.90
39103;DHT22;24847;48.218;16.414;2023-10-13T15:01:23;24.30;99.90
39103;DHT22;24847;48.218;16.414;2023-10-13T15:06:29;24.30;99.90
39103;DHT22;24847;48.218;16.414;2023-10-13T15:11:37;24.40;99.90
39103;DHT22;24847;48.218;16.414;2023-10-13T15:16:44;24.40;99.90
39103;DHT22;24847;48.218;16.414;2023-10-13T15:21:47;24.40;99.90
39103;DHT22;24847;48.218;16.414;2023-10-13T15:26:55;24.40;99.90
39103;DHT22;24847;48.218;16.414;2023-10-13T15:32:06;24.40;99.90
39103;DHT22;24847;48.218;16.414;2023-10-13T15:37:22;23.90;99.90
39103;DHT22;24847;48.218;16.414;2023-10-13T15:42:26;23.60;99.90
39103;DHT22;24847;48.218;16.414;2023-10-13T15:47:30;23.40;99.90
39103;DHT22;24847;48.218;16.414;2023-10-13T15:52:38;23.60;99.90
39103;DHT22;24847;48.218;16.414;2023-10-13T15:57:44;23.60;99.90
39103;DHT22;24847;48.218;16.414;2023-10-13T16:02:57;23.50;99.90
39103;DHT22;24847;48.218;16.414;2023-10-13T16:08:04;23.30;99.90
39103;DHT22;24847;48.218;16.414;2023-10-13T16:13:21;23.30;99.90
39103;DHT22;24847;48.218;16.414;2023-10-13T16:18:24;23.20;99.90
39103;DHT22;24847;48.218;16.414;2023-10-13T16:23:26;23.30;99.90
39103;DHT22;24847;48.218;16.414;2023-10-13T16:28:33;23.30;99.90
39103;DHT22;24847;48.218;16.414;2023-10-13T16:33:39;23.00;99.90
39103;DHT22;24847;48.218;16.414;2023-10-13T16:38:42;22.90;99.90
39103;DHT22;24847;48.218;16.414;2023-10-13T16:43:49;22.70;99.90
39103;DHT22;24847;48.218;16.414;2023-10-13T16:48:57;22.80;99.90
39103;DHT22;24847;48.218;16.414;2023-10-13T16:54:03;22.90;99.90
39103;DHT22;24847;48.218;16.414;2023-10-13T16:59:08;22.80;99.90
39103;DHT22;24847;48.218;16.414;2023-10-13T17:04:18;22.70;99.90
39103;DHT22;24847;48.218;16.414;2023-10-13T17:09:25;22.60;99.90
39103;DHT22;24847;48.218;16.414;2023-10-13T17:14:29;22.70;99.90
39103;DHT22;24847;48.218;16.414;2023-10-13T17:19:39;22.60;99.90
39103;DHT22;24847;48.218;16.414;2023-10-13T17:24:47;22.50;99.90
39103;DHT22;24847;48.218;16.414;2023-10-13T17:29:51;22.20;99.90
39103;DHT22;24847;48.218;16.414;2023-10-13T17:34:59;22.10;99.90
39103;DHT22;24847;48.218;16.414;2023-10-13T17:40:03;22.30;99.90
39103;DHT22;24847;48.218;16.414;2023-10-13T17:45:12;22.20;99.90
39103;DHT22;24847;48.218;16.414;2023-10-13T17:50:16;22.10;99.90
39103;DHT22;24847;48.218;16.414;2023-10-13T17:55:20;22.00;99.90
39103;DHT22;24847;48.218;16.414;2023-10-13T18:00:26;22.00;99.90
39103;DHT22;24847;48.218;16.414;2023-10-13T18:05:33;21.90;99.90
39103;DHT22;24847;48.218;16.414;2023-10-13T18:10:40;21.80;99.90
39103;DHT22;24847;48.218;16.414;2023-10-13T18:15:47;21.60;99.90
39103;DHT22;24847;48.218;16.414;2023-10-13T18:21:02;21.50;99.90
39103;DHT22;24847;48.218;16.414;2023-10-13T18:26:09;21.60;99.90
39103;DHT22;24847;48.218;16.414;2023-10-13T18:31:13;21.60;99.90
39103;DHT22;24847;48.218;16.414;2023-10-13T18:36:20;21.60;99.90
39103;DHT22;24847;48.218;16.414;2023-10-13T18:41:25;21.50;99.90
39103;DHT22;24847;48.218;16.414;2023-10-13T18:46:32;21.50;99.90
39103;DHT22;24847;48.218;16.414;2023-10-13T18:51:38;21.50;99.90
39103;DHT22;24847;48.218;16.414;2023-10-13T18:56:43;21.40;99.90
39103;DHT22;24847;48.218;16.414;2023-10-13T19:01:50;21.40;99.90
39103;DHT22;24847;48.218;16.414;2023-10-13T19:06:59;21.30;99.90
39103;DHT22;24847;48.218;16.414;2023-10-13T19:12:05;21.20;99.90
39103;DHT22;24847;48.218;16.414;2023-10-13T19:17:12;21.20;99.90
39103;DHT22;24847;48.218;16.414;2023-10-13T19:22:23;21.10;99.90
39103;DHT22;24847;48.218;16.414;2023-10-13T19:27:30;21.00;99.90
39103;DHT22;24847;48.218;16.414;2023-10-13T19:32:37;21.00;99.90
39103;DHT22;24847;48.218;16.414;2023-10-13T19:37:44;20.90;99.90
39103;DHT22;24847;48.218;16.414;2023-10-13T19:42:53;20.80;99.90
39103;DHT22;24847;48.218;16.414;2023-10-13T19:47:59;20.80;99.90
39103;DHT22;24847;48.218;16.414;2023-10-13T19:53:10;20.90;99.90
39103;DHT22;24847;48.218;16.414;2023-10-13T19:58:14;20.60;99.90
39103;DHT22;24847;48.218;16.414;2023-10-13T20:03:22;20.70;99.90
39103;DHT22;24847;48.218;16.414;2023-10-13T20:08:27;20.70;99.90
39103;DHT22;24847;48.218;16.414;2023-10-13T20:13:33;20.60;99.90
39103;DHT22;24847;48.218;16.414;2023-10-13T20:18:40;20.30;99.90
39103;DHT22;24847;48.218;16.414;2023-10-13T20:23:48;20.30;99.90
39103;DHT22;24847;48.218;16.414;2023-10-13T20:28:54;20.40;99.90
39103;DHT22;24847;48.218;16.414;2023-10-13T20:34:01;20.40;99.90
39103;DHT22;24847;48.218;16.414;2023-10-13T20:39:05;20.30;99.90
39103;DHT22;24847;48.218;16.414;2023-10-13T20:44:10;20.10;99.90
39103;DHT22;24847;48.218;16.414;2023-10-13T20:49:17;19.70;99.90
39103;DHT22;24847;48.218;16.414;2023-10-13T20:54:30;19.90;99.90
39103;DHT22;24847;48.218;16.414;2023-10-13T20:59:32;20.10;99.90
39103;DHT22;24847;48.218;16.414;2023-10-13T21:04:39;19.70;99.90
39103;DHT22;24847;48.218;16.414;2023-10-13T21:09:49;19.40;99.90
39103;DHT22;24847;48.218;16.414;2023-10-13T21:14:55;19.50;99.90
39103;DHT22;24847;48.218;16.414;2023-10-13T21:20:01;19.20;99.90
39103;DHT22;24847;48.218;16.414;2023-10-13T21:25:13;18.90;99.90
39103;DHT22;24847;48.218;16.414;2023-10-13T21:30:31;18.60;99.90
39103;DHT22;24847;48.218;16.414;2023-10-13T21:35:34;18.70;99.90
39103;DHT22;24847;48.218;16.414;2023-10-13T21:40:39;18.50;99.90
39103;DHT22;24847;48.218;16.414;2023-10-13T21:45:43;18.50;99.90
39103;DHT22;24847;48.218;16.414;2023-10-13T21:50:46;18.50;99.90
39103;DHT22;24847;48.218;16.414;2023-10-13T21:55:50;18.90;99.90
39103;DHT22;24847;48.218;16.414;2023-10-13T22:00:52;18.30;99.90
39103;DHT22;24847;48.218;16.414;2023-10-13T22:06:01;18.80;99.90
39103;DHT22;24847;48.218;16.414;2023-10-13T22:11:08;18.90;99.90
39103;DHT22;24847;48.218;16.414;2023-10-13T22:16:15;18.20;99.90
39103;DHT22;24847;48.218;16.414;2023-10-13T22:21:20;18.20;99.90
39103;DHT22;24847;48.218;16.414;2023-10-13T22:26:26;18.30;99.90
39103;DHT22;24847;48.218;16.414;2023-10-13T22:31:30;18.30;99.90
39103;DHT22;24847;48.218;16.414;2023-10-13T22:36:37;18.30;99.90
39103;DHT22;24847;48.218;16.414;2023-10-13T22:41:44;18.60;99.90
39103;DHT22;24847;48.218;16.414;2023-10-13T22:46:48;18.30;99.90
39103;DHT22;24847;48.218;16.414;2023-10-13T22:51:54;18.30;99.90
39103;DHT22;24847;48.218;16.414;2023-10-13T22:56:57;18.00;99.90
39103;DHT22;24847;48.218;16.414;2023-10-13T23:02:00;18.30;99.90
39103;DHT22;24847;48.218;16.414;2023-10-13T23:07:08;18.10;99.90
39103;DHT22;24847;48.218;16.414;2023-10-13T23:12:19;18.10;99.90
39103;DHT22;24847;48.218;16.414;2023-10-13T23:17:22;18.40;99.90
39103;DHT22;24847;48.218;16.414;2023-10-13T23:22:28;18.50;99.90
39103;DHT22;24847;48.218;16.414;2023-10-13T23:27:36;18.60;99.90
39103;DHT22;24847;48.218;16.414;2023-10-13T23:32:42;18.10;99.90
39103;DHT22;24847;48.218;16.414;2023-10-13T23:37:48;17.50;99.90
39103;DHT22;24847;48.218;16.414;2023-10-13T23:42:55;17.40;99.90
39103;DHT22;24847;48.218;16.414;2023-10-13T23:47:58;16.90;99.90
39103;DHT22;24847;48.218;16.414;2023-10-13T23:53:00;17.00;99.90
39103;DHT22;24847;48.218;16.414;2023-10-13T23:58:07;17.20;99.90
